Terminal Aerodrome Forecast
Issued by NWS Wakefield, VA

Home | Current Version | Previous Version | Text Only | Print | Product List | Glossary On
Versions: 1 2 3 4 5 6 7 8 9 10 11 12
000
FTUS41 KAKQ 230500
TAFRIC
TAF
KRIC 230539Z 2306/2406 21005KT P6SM BKN250
     FM231400 20007KT P6SM SCT040 BKN120
     FM232100 17009KT P6SM -RA SCT030 OVC060=

USA.gov is the U.S. government's official web portal to all federal, state and local government web resources and services.